Time;durP1;ratioP1;P1;durP2;ratioP2;P2;SDS_P1;SDS_P2;PMS_P1;PMS_P2;Temp;Humidity;BMP_temperature;BMP_pressure;BME280_temperature;BME280_humidity;BME280_pressure;Samples;Min_cycle;Max_cycle;Signal;HPM_P1;HPM_P2
2024/03/15 00:00:17;;;;;;;9.10;4.95;;;11.70;99.90;;;;;;4963218;29;20046;-86
2024/03/15 00:02:45;;;;;;;10.60;4.80;;;11.70;99.90;;;;;;4973608;29;20101;-87
2024/03/15 00:05:12;;;;;;;9.43;5.15;;;11.70;99.90;;;;;;4970107;29;20035;-86
2024/03/15 00:07:39;;;;;;;7.53;4.75;;;11.70;99.90;;;;;;4969333;29;20043;-86
2024/03/15 00:10:06;;;;;;;9.65;5.20;;;11.70;99.90;;;;;;4966694;29;20044;-86
2024/03/15 00:12:35;;;;;;;8.80;5.10;;;11.70;99.90;;;;;;4966717;29;20043;-86
2024/03/15 00:15:02;;;;;;;9.63;5.05;;;11.80;99.90;;;;;;4973364;29;20046;-86
2024/03/15 00:17:29;;;;;;;8.77;5.28;;;11.70;99.90;;;;;;4959753;29;20039;-86
2024/03/15 00:19:56;;;;;;;7.82;4.97;;;11.50;99.90;;;;;;4972426;29;20130;-87
2024/03/15 00:22:23;;;;;;;8.63;5.10;;;12.00;99.90;;;;;;4965592;29;20528;-86
2024/03/15 00:24:50;;;;;;;7.28;4.55;;;11.70;99.90;;;;;;4966643;29;20061;-86
2024/03/15 00:27:16;;;;;;;9.63;5.05;;;11.60;99.90;;;;;;4962980;29;20043;-86
2024/03/15 00:29:43;;;;;;;9.35;4.43;;;11.60;99.90;;;;;;4972662;29;20126;-86
2024/03/15 00:32:10;;;;;;;8.45;4.78;;;11.50;99.90;;;;;;4973440;29;20162;-86
2024/03/15 00:34:36;;;;;;;11.20;5.60;;;11.50;99.90;;;;;;4960578;29;20041;-86
2024/03/15 00:37:03;;;;;;;10.75;5.18;;;11.50;99.90;;;;;;4972580;29;20046;-86
2024/03/15 00:39:30;;;;;;;9.55;4.97;;;11.60;99.90;;;;;;4972700;29;20042;-86
2024/03/15 00:41:56;;;;;;;7.75;5.07;;;11.40;99.90;;;;;;4971538;29;20043;-86
2024/03/15 00:44:23;;;;;;;8.35;4.57;;;11.30;99.90;;;;;;4969308;29;20040;-86
2024/03/15 00:46:50;;;;;;;15.55;5.30;;;11.30;99.90;;;;;;4980065;29;20412;-86
2024/03/15 00:49:16;;;;;;;8.93;4.93;;;11.30;99.90;;;;;;4972869;29;20039;-86
2024/03/15 00:51:43;;;;;;;7.95;4.88;;;11.20;99.90;;;;;;4972451;29;20043;-86
2024/03/15 00:54:10;;;;;;;11.30;5.25;;;11.10;99.90;;;;;;4959812;29;20050;-86
2024/03/15 00:56:36;;;;;;;8.30;4.82;;;11.10;99.90;;;;;;4970474;29;20500;-86
2024/03/15 00:59:03;;;;;;;7.30;4.78;;;11.10;99.90;;;;;;4954371;29;20078;-86
2024/03/15 01:01:30;;;;;;;7.50;4.70;;;11.00;99.90;;;;;;4980831;29;20036;-86
2024/03/15 01:03:57;;;;;;;8.02;5.30;;;10.90;99.90;;;;;;4968798;29;20086;-86
2024/03/15 01:06:23;;;;;;;8.70;5.22;;;11.20;99.90;;;;;;4972119;29;20126;-86
2024/03/15 01:08:51;;;;;;;7.93;4.95;;;10.90;99.90;;;;;;4962892;29;20066;-86
2024/03/15 01:11:18;;;;;;;8.90;4.90;;;10.80;99.90;;;;;;4966080;29;20723;-87
2024/03/15 01:13:44;;;;;;;8.30;4.97;;;10.90;99.90;;;;;;4972656;29;20112;-86
2024/03/15 01:16:11;;;;;;;13.93;5.35;;;10.80;99.90;;;;;;4972133;29;20039;-86
2024/03/15 01:18:38;;;;;;;9.23;4.78;;;11.20;99.90;;;;;;4966753;29;20044;-86
2024/03/15 01:21:05;;;;;;;8.25;4.88;;;10.80;99.90;;;;;;4961528;29;20044;-87
2024/03/15 01:23:32;;;;;;;9.02;5.25;;;10.80;99.90;;;;;;4959335;29;20041;-86
2024/03/15 01:25:58;;;;;;;8.55;5.10;;;10.90;99.90;;;;;;4961457;29;20066;-86
2024/03/15 01:28:25;;;;;;;8.65;4.95;;;10.90;99.90;;;;;;4981541;29;20035;-86
2024/03/15 01:30:52;;;;;;;9.93;4.82;;;10.90;99.90;;;;;;4964922;29;20039;-86
2024/03/15 01:33:18;;;;;;;8.95;5.05;;;10.90;99.90;;;;;;4968815;29;20032;-86
2024/03/15 01:35:45;;;;;;;8.07;4.68;;;11.00;99.90;;;;;;4965164;29;20473;-86
2024/03/15 01:38:11;;;;;;;8.43;4.70;;;11.00;99.90;;;;;;4964392;29;20047;-86
2024/03/15 01:40:38;;;;;;;7.35;4.72;;;11.00;99.90;;;;;;4981481;29;20055;-86
2024/03/15 01:43:05;;;;;;;10.73;5.07;;;11.10;99.90;;;;;;4971936;29;20035;-86
2024/03/15 01:45:32;;;;;;;10.07;5.10;;;11.00;99.90;;;;;;4972288;29;20039;-87
2024/03/15 01:47:58;;;;;;;10.68;4.90;;;11.10;99.90;;;;;;4973723;29;20047;-86
2024/03/15 01:50:26;;;;;;;10.45;4.25;;;11.10;99.90;;;;;;4968733;29;20509;-86
2024/03/15 01:52:56;;;;;;;10.25;4.80;;;11.30;99.90;;;;;;4968356;29;20054;-86
2024/03/15 01:55:24;;;;;;;10.48;5.20;;;11.20;99.90;;;;;;4974618;29;20039;-86
2024/03/15 01:57:50;;;;;;;9.80;5.30;;;11.20;99.90;;;;;;4976274;29;20082;-86
2024/03/15 02:00:18;;;;;;;8.93;4.30;;;11.20;99.90;;;;;;4974335;29;20051;-86
2024/03/15 02:02:44;;;;;;;7.03;4.47;;;11.60;99.90;;;;;;4975883;29;20509;-86
2024/03/15 02:05:11;;;;;;;8.10;4.68;;;11.30;99.90;;;;;;4975233;29;20046;-86
2024/03/15 02:07:37;;;;;;;10.27;5.20;;;11.30;99.90;;;;;;4962673;29;20046;-87
2024/03/15 02:10:13;;;;;;;11.57;4.97;;;11.30;99.90;;;;;;4976060;29;20051;-86
2024/03/15 02:12:40;;;;;;;9.80;4.78;;;11.30;99.90;;;;;;4970820;29;20094;-86
2024/03/15 02:15:07;;;;;;;8.77;4.50;;;11.30;99.90;;;;;;4975506;29;20051;-86
2024/03/15 02:17:36;;;;;;;7.95;4.93;;;11.30;99.90;;;;;;4991649;29;20040;-87
2024/03/15 02:20:06;;;;;;;10.25;4.90;;;11.30;99.90;;;;;;4974990;29;20045;-86
2024/03/15 02:22:33;;;;;;;9.93;4.93;;;11.30;99.90;;;;;;4967203;29;20039;-86
2024/03/15 02:24:59;;;;;;;10.43;5.40;;;11.30;99.90;;;;;;4971911;29;20106;-86
2024/03/15 02:27:28;;;;;;;9.05;4.82;;;11.20;99.90;;;;;;4965893;29;20039;-86
2024/03/15 02:29:55;;;;;;;9.30;5.03;;;11.20;99.90;;;;;;4991133;29;20105;-86
2024/03/15 02:32:25;;;;;;;10.60;5.03;;;11.40;99.90;;;;;;4968480;29;20071;-86
2024/03/15 02:34:51;;;;;;;8.63;5.05;;;11.10;99.90;;;;;;4975127;29;20063;-86
2024/03/15 02:37:18;;;;;;;10.73;5.50;;;11.10;99.90;;;;;;4975324;29;20043;-87
2024/03/15 02:39:46;;;;;;;9.68;4.90;;;11.20;99.90;;;;;;4962459;29;20050;-86
2024/03/15 02:42:12;;;;;;;8.48;5.00;;;11.20;99.90;;;;;;4974859;29;20043;-86
2024/03/15 02:44:39;;;;;;;10.48;5.68;;;11.10;99.90;;;;;;4974869;29;20031;-86
2024/03/15 02:47:06;;;;;;;9.18;5.38;;;11.10;99.90;;;;;;4974568;29;20035;-86
2024/03/15 02:49:33;;;;;;;8.38;5.10;;;11.10;99.90;;;;;;4984691;29;20040;-86
2024/03/15 02:52:00;;;;;;;8.00;4.90;;;11.20;99.90;;;;;;4971615;29;20102;-86
2024/03/15 02:54:28;;;;;;;11.68;5.40;;;11.10;99.90;;;;;;4990513;29;20071;-86
2024/03/15 02:56:55;;;;;;;9.70;5.22;;;11.10;99.90;;;;;;4977545;29;20044;-86
2024/03/15 02:59:23;;;;;;;9.20;5.18;;;11.10;99.90;;;;;;4970025;29;20074;-86
2024/03/15 03:01:51;;;;;;;8.55;5.10;;;11.10;99.90;;;;;;4973232;29;20041;-86
2024/03/15 03:04:20;;;;;;;8.77;5.18;;;11.10;99.90;;;;;;4968630;29;20046;-86
2024/03/15 03:06:47;;;;;;;8.50;5.15;;;11.20;99.90;;;;;;4970415;29;20464;-86
2024/03/15 03:09:20;;;;;;;8.77;4.95;;;11.20;99.90;;;;;;4974307;29;20091;-86
2024/03/15 03:11:47;;;;;;;10.13;5.15;;;11.70;99.90;;;;;;4972041;29;20082;-86
2024/03/15 03:14:14;;;;;;;9.77;5.25;;;11.50;99.90;;;;;;4967899;29;20075;-86
2024/03/15 03:16:42;;;;;;;9.65;5.43;;;11.20;99.90;;;;;;4962982;29;20050;-86
2024/03/15 03:19:09;;;;;;;7.88;4.63;;;11.20;99.90;;;;;;4974155;29;20050;-86
2024/03/15 03:21:36;;;;;;;10.30;5.35;;;11.20;99.90;;;;;;4961536;29;20043;-86
2024/03/15 03:24:03;;;;;;;9.77;5.25;;;11.30;99.90;;;;;;4969174;29;20493;-86
2024/03/15 03:26:30;;;;;;;8.57;5.38;;;11.30;99.90;;;;;;4974485;29;20094;-86
2024/03/15 03:28:56;;;;;;;9.73;5.88;;;11.30;99.90;;;;;;4988449;29;20404;-86
2024/03/15 03:31:23;;;;;;;13.68;5.93;;;11.30;99.90;;;;;;4986670;29;20050;-86
2024/03/15 03:33:50;;;;;;;9.63;5.35;;;11.30;99.90;;;;;;4974359;29;20078;-86
2024/03/15 03:36:16;;;;;;;8.85;5.10;;;11.30;99.90;;;;;;4971990;29;20576;-86
2024/03/15 03:38:44;;;;;;;7.75;4.95;;;11.30;99.90;;;;;;4973677;29;20050;-86
2024/03/15 03:41:11;;;;;;;9.25;5.68;;;11.30;99.90;;;;;;4973723;29;20066;-86
2024/03/15 03:43:37;;;;;;;9.10;5.43;;;11.30;99.90;;;;;;4974170;29;20055;-86
2024/03/15 03:46:08;;;;;;;10.30;5.38;;;11.20;99.90;;;;;;4969896;29;20039;-87
2024/03/15 03:48:35;;;;;;;9.50;5.45;;;11.80;99.90;;;;;;4968866;29;20039;-86
2024/03/15 03:51:02;;;;;;;8.95;5.18;;;11.40;99.90;;;;;;4972620;29;20043;-85
2024/03/15 03:53:30;;;;;;;11.35;6.15;;;11.20;99.90;;;;;;4973686;29;20037;-86
2024/03/15 03:55:56;;;;;;;8.20;5.40;;;11.20;99.90;;;;;;4973351;29;20039;-86
2024/03/15 03:58:23;;;;;;;10.30;5.07;;;11.20;99.90;;;;;;4973232;29;20043;-86
2024/03/15 04:00:50;;;;;;;11.35;6.10;;;11.30;99.90;;;;;;4972636;29;20425;-86
2024/03/15 04:03:17;;;;;;;9.82;5.47;;;11.20;99.90;;;;;;4973357;29;20046;-86
2024/03/15 04:05:44;;;;;;;10.48;5.68;;;11.30;99.90;;;;;;4968534;29;20027;-86
2024/03/15 04:08:13;;;;;;;9.13;5.80;;;11.20;99.90;;;;;;4969338;29;20110;-87
2024/03/15 04:10:40;;;;;;;11.13;5.38;;;11.20;99.90;;;;;;4972456;29;20071;-86
2024/03/15 04:13:07;;;;;;;11.27;6.05;;;11.20;99.90;;;;;;4967660;29;20095;-86
2024/03/15 04:15:35;;;;;;;11.15;6.45;;;11.20;99.90;;;;;;4966343;29;20043;-86
2024/03/15 04:18:02;;;;;;;10.82;5.97;;;11.20;99.90;;;;;;4980427;29;20515;-86
2024/03/15 04:20:29;;;;;;;10.57;6.43;;;11.10;99.90;;;;;;4973183;29;20126;-86
2024/03/15 04:22:56;;;;;;;10.80;6.18;;;11.40;99.90;;;;;;4961118;29;20039;-86
2024/03/15 04:25:23;;;;;;;11.88;6.43;;;11.10;99.90;;;;;;4987903;28;20035;-86
2024/03/15 04:27:51;;;;;;;12.80;6.65;;;11.20;99.90;;;;;;4973100;29;20039;-86
2024/03/15 04:30:21;;;;;;;11.20;6.68;;;11.00;99.90;;;;;;4961338;29;20059;-86
2024/03/15 04:32:53;;;;;;;11.07;6.50;;;11.00;99.90;;;;;;4969036;29;20082;-85
2024/03/15 04:35:20;;;;;;;12.23;6.60;;;11.00;99.90;;;;;;4972989;29;20055;-87
2024/03/15 04:37:47;;;;;;;13.20;6.03;;;11.00;99.90;;;;;;4960931;29;20046;-86
2024/03/15 04:40:14;;;;;;;10.13;6.28;;;11.00;99.90;;;;;;4972880;29;20129;-87
2024/03/15 04:42:41;;;;;;;10.90;7.15;;;10.90;99.90;;;;;;4971839;29;20432;-86
2024/03/15 04:45:10;;;;;;;9.57;6.28;;;10.90;99.90;;;;;;4973480;29;20082;-86
2024/03/15 04:47:38;;;;;;;13.85;7.30;;;10.90;99.90;;;;;;4973369;29;20050;-86
2024/03/15 04:50:09;;;;;;;14.60;7.00;;;10.90;99.90;;;;;;4971518;29;20507;-87
2024/03/15 04:52:41;;;;;;;14.50;7.15;;;10.90;99.90;;;;;;4972820;29;20097;-86
2024/03/15 04:55:11;;;;;;;13.23;7.18;;;10.90;99.90;;;;;;4960443;29;20055;-87
2024/03/15 04:57:38;;;;;;;12.88;7.18;;;11.00;99.90;;;;;;4973355;29;20117;-87
2024/03/15 05:00:09;;;;;;;11.98;6.50;;;11.00;99.90;;;;;;4972828;29;20043;-87
2024/03/15 05:02:36;;;;;;;14.60;7.10;;;10.90;99.90;;;;;;4964199;29;20067;-87
2024/03/15 05:05:07;;;;;;;13.00;7.03;;;11.00;99.90;;;;;;4965394;29;20051;-87
2024/03/15 05:07:33;;;;;;;13.90;7.00;;;11.00;99.90;;;;;;4960483;29;20039;-87
2024/03/15 05:10:00;;;;;;;14.98;7.40;;;11.00;99.90;;;;;;4982251;29;20090;-88
2024/03/15 05:12:27;;;;;;;13.88;7.15;;;11.00;99.90;;;;;;4987618;29;20457;-87
2024/03/15 05:14:53;;;;;;;15.20;7.47;;;10.90;99.90;;;;;;4972713;29;20131;-87
2024/03/15 05:17:20;;;;;;;13.13;7.90;;;11.00;99.90;;;;;;4960247;29;20066;-87
2024/03/15 05:19:47;;;;;;;13.18;7.68;;;10.90;99.90;;;;;;4965777;29;20095;-87
2024/03/15 05:22:13;;;;;;;11.63;7.63;;;10.80;99.90;;;;;;4972977;29;20047;-88
2024/03/15 05:24:40;;;;;;;10.73;7.03;;;11.50;99.90;;;;;;4960001;29;20039;-88
2024/03/15 05:27:08;;;;;;;13.55;7.63;;;10.90;99.90;;;;;;4972643;29;20035;-88
2024/03/15 05:29:38;;;;;;;14.13;7.30;;;10.80;99.90;;;;;;4972211;29;20416;-87
2024/03/15 05:32:05;;;;;;;12.75;7.53;;;11.10;99.90;;;;;;4964570;29;20409;-87
2024/03/15 05:34:32;;;;;;;13.93;7.20;;;10.80;99.90;;;;;;4968775;29;20043;-88
2024/03/15 05:36:59;;;;;;;14.10;7.88;;;11.00;99.90;;;;;;4972637;29;20109;-87
2024/03/15 05:39:28;;;;;;;13.23;8.13;;;10.80;99.90;;;;;;4959866;29;20175;-87
2024/03/15 05:41:55;;;;;;;11.98;7.82;;;10.90;99.90;;;;;;4972834;29;20054;-88
2024/03/15 05:44:21;;;;;;;14.60;8.50;;;10.70;99.90;;;;;;4960953;29;20489;-87
2024/03/15 05:46:50;;;;;;;14.70;7.72;;;10.70;99.90;;;;;;4964014;29;20401;-88
2024/03/15 05:49:17;;;;;;;14.60;8.68;;;10.80;99.90;;;;;;4961079;29;20039;-88
2024/03/15 05:51:44;;;;;;;16.73;8.10;;;10.70;99.90;;;;;;4972252;29;20533;-88
2024/03/15 05:54:10;;;;;;;14.27;8.32;;;10.70;99.90;;;;;;4954229;29;20078;-88
2024/03/15 05:56:37;;;;;;;15.27;8.02;;;11.50;99.90;;;;;;4980239;29;20043;-88
2024/03/15 05:59:04;;;;;;;14.73;8.18;;;11.10;99.90;;;;;;4979163;29;20038;-88
2024/03/15 06:01:30;;;;;;;15.27;8.50;;;10.70;99.90;;;;;;4984575;29;20039;-88
2024/03/15 06:03:57;;;;;;;15.45;9.35;;;10.70;99.90;;;;;;4970139;28;20043;-88
2024/03/15 06:06:25;;;;;;;15.57;8.90;;;10.80;99.90;;;;;;4972203;29;20400;-88
2024/03/15 06:08:51;;;;;;;17.15;9.02;;;10.70;99.90;;;;;;4962843;29;20465;-88
2024/03/15 06:11:20;;;;;;;14.95;8.45;;;11.60;99.90;;;;;;4960734;29;20047;-88
2024/03/15 06:13:47;;;;;;;17.00;9.50;;;10.70;99.90;;;;;;4967073;29;20039;-88
2024/03/15 06:16:16;;;;;;;14.43;8.70;;;10.80;99.90;;;;;;4972338;29;20039;-88
2024/03/15 06:18:43;;;;;;;16.13;9.15;;;10.80;99.90;;;;;;4972053;29;20166;-88
2024/03/15 06:21:10;;;;;;;19.00;9.55;;;10.80;99.90;;;;;;4965381;29;20118;-88
2024/03/15 06:23:37;;;;;;;15.10;9.50;;;10.90;99.90;;;;;;4971841;29;20067;-88
2024/03/15 06:26:03;;;;;;;15.30;9.40;;;10.90;99.90;;;;;;4971757;29;20122;-88
2024/03/15 06:28:30;;;;;;;17.30;9.35;;;11.70;99.90;;;;;;4988038;29;20047;-88
2024/03/15 06:30:57;;;;;;;17.92;10.57;;;10.90;99.90;;;;;;4972091;29;20042;-88
2024/03/15 06:33:28;;;;;;;18.33;10.90;;;11.30;99.90;;;;;;4987863;28;20051;-87
2024/03/15 06:35:56;;;;;;;16.52;9.88;;;11.00;99.90;;;;;;4974583;29;20038;-88
2024/03/15 06:41:13;;;;;;;16.75;10.07;;;11.00;99.90;;;;;;4987956;29;20044;-88
2024/03/15 06:43:46;;;;;;;22.95;10.90;;;11.10;99.90;;;;;;4967342;29;20043;-88
2024/03/15 06:46:24;;;;;;;16.52;10.18;;;11.00;99.90;;;;;;4969496;29;20110;-88
2024/03/15 06:49:02;;;;;;;20.90;10.93;;;11.10;99.90;;;;;;4973733;29;20609;-88
2024/03/15 06:54:14;;;;;;;15.02;10.25;;;11.10;99.90;;;;;;4989785;29;20046;-88
2024/03/15 06:56:43;;;;;;;18.85;10.32;;;11.80;99.90;;;;;;4956391;29;20050;-88
2024/03/15 06:59:10;;;;;;;19.75;10.70;;;11.30;99.90;;;;;;4975120;29;20421;-88
2024/03/15 07:01:37;;;;;;;19.75;10.70;;;11.20;99.90;;;;;;4967365;29;20035;-88
2024/03/15 07:04:07;;;;;;;18.67;10.75;;;11.20;99.90;;;;;;4963345;29;20087;-88
2024/03/15 07:06:34;;;;;;;18.05;10.35;;;11.20;99.90;;;;;;4961642;29;20409;-91
2024/03/15 07:09:04;;;;;;;17.60;10.00;;;11.20;99.90;;;;;;4970850;29;20057;-91
2024/03/15 07:11:34;;;;;;;16.83;10.38;;;11.20;99.90;;;;;;4974343;29;20420;-91
2024/03/15 07:14:03;;;;;;;16.45;9.18;;;11.20;99.90;;;;;;4969060;29;20042;-90
2024/03/15 07:16:31;;;;;;;18.20;10.63;;;11.20;99.90;;;;;;4959467;29;20039;-90
2024/03/15 07:18:59;;;;;;;16.92;9.75;;;11.30;99.90;;;;;;4963012;29;20075;-91
2024/03/15 07:21:26;;;;;;;17.70;9.88;;;11.30;99.90;;;;;;4968358;28;20049;-90
2024/03/15 07:23:53;;;;;;;19.65;11.35;;;12.10;99.90;;;;;;4965753;29;20118;-90
2024/03/15 07:26:19;;;;;;;17.52;9.82;;;11.40;99.90;;;;;;4966070;29;20073;-90
2024/03/15 07:28:46;;;;;;;18.27;10.85;;;11.40;99.90;;;;;;4974431;29;20078;-90
2024/03/15 07:31:13;;;;;;;16.60;10.38;;;11.40;99.90;;;;;;4961993;29;20039;-90
2024/03/15 07:33:40;;;;;;;19.75;10.82;;;11.40;99.90;;;;;;4964890;29;20071;-90
2024/03/15 07:36:07;;;;;;;17.40;10.93;;;11.50;99.90;;;;;;4962748;29;20039;-90
2024/03/15 07:38:37;;;;;;;16.08;10.05;;;11.50;99.90;;;;;;4969380;29;20067;-91
2024/03/15 07:41:10;;;;;;;19.65;10.18;;;11.50;99.90;;;;;;4965630;29;20672;-90
2024/03/15 07:43:37;;;;;;;15.88;10.20;;;11.50;99.90;;;;;;4974408;29;20043;-91
2024/03/15 07:46:05;;;;;;;18.77;9.73;;;11.50;99.90;;;;;;4974519;29;20050;-90
2024/03/15 07:48:32;;;;;;;17.30;9.60;;;11.50;99.90;;;;;;4964110;29;20075;-91
2024/03/15 07:50:59;;;;;;;19.05;10.15;;;11.50;99.90;;;;;;4973661;29;20118;-90
2024/03/15 07:53:26;;;;;;;18.00;10.32;;;11.50;99.90;;;;;;4961109;29;20478;-91
2024/03/15 07:55:54;;;;;;;18.15;10.50;;;11.50;99.90;;;;;;4958218;29;20046;-90
2024/03/15 07:58:20;;;;;;;18.80;10.63;;;11.50;99.90;;;;;;4964894;29;20035;-93
2024/03/15 08:00:47;;;;;;;15.98;10.05;;;11.50;99.90;;;;;;4968198;29;20130;-91
2024/03/15 08:03:14;;;;;;;18.73;10.18;;;11.50;99.90;;;;;;4974725;29;20038;-93
2024/03/15 08:05:40;;;;;;;18.98;11.05;;;11.50;99.90;;;;;;4973188;29;20389;-93
2024/03/15 08:08:07;;;;;;;17.33;10.68;;;11.50;99.90;;;;;;4966261;29;20111;-93
2024/03/15 08:10:34;;;;;;;20.35;10.07;;;12.20;99.90;;;;;;4976741;29;20134;-92
2024/03/15 08:13:01;;;;;;;18.77;9.90;;;11.60;99.90;;;;;;4968502;29;20461;-93
2024/03/15 08:15:32;;;;;;;17.25;11.00;;;11.60;99.90;;;;;;4960193;29;20077;-93
2024/03/15 08:17:59;;;;;;;22.42;10.25;;;11.60;99.90;;;;;;4964187;29;20108;-92
2024/03/15 08:20:26;;;;;;;17.65;10.10;;;11.70;99.90;;;;;;4965089;29;20102;-92
2024/03/15 08:22:56;;;;;;;16.63;10.05;;;11.80;99.90;;;;;;4984280;29;20477;-93
2024/03/15 08:25:23;;;;;;;15.68;10.07;;;11.80;99.90;;;;;;4964562;29;20043;-94
2024/03/15 08:27:49;;;;;;;14.98;9.68;;;11.90;99.90;;;;;;4971974;29;20046;-93
2024/03/15 08:30:18;;;;;;;16.92;9.90;;;12.00;99.90;;;;;;4978768;29;20058;-93
2024/03/15 08:32:45;;;;;;;20.33;10.02;;;12.00;99.90;;;;;;4979111;29;20043;-93
2024/03/15 08:35:14;;;;;;;17.48;9.38;;;12.10;99.90;;;;;;4975239;29;20039;-94
2024/03/15 08:37:43;;;;;;;15.25;9.25;;;12.10;99.90;;;;;;4976184;29;20039;-93
2024/03/15 08:40:13;;;;;;;21.30;9.95;;;12.20;99.90;;;;;;4969886;29;20059;-93
2024/03/15 08:42:40;;;;;;;19.63;9.98;;;12.20;99.90;;;;;;4974341;29;20110;-94
2024/03/15 08:45:08;;;;;;;16.05;9.27;;;12.30;99.90;;;;;;4976090;29;20114;-93
2024/03/15 08:47:39;;;;;;;13.65;8.77;;;12.30;99.90;;;;;;4973173;29;20126;-93
2024/03/15 08:50:11;;;;;;;16.00;9.07;;;12.40;99.90;;;;;;4978631;29;20078;-93
2024/03/15 08:52:41;;;;;;;13.18;8.57;;;12.30;99.90;;;;;;4976762;29;20051;-93
2024/03/15 08:55:09;;;;;;;13.40;8.23;;;12.40;99.90;;;;;;4967321;29;20521;-92
2024/03/15 08:57:39;;;;;;;12.82;8.40;;;12.40;99.90;;;;;;4970331;29;20102;-93
2024/03/15 09:00:12;;;;;;;12.23;8.27;;;13.00;99.90;;;;;;4977376;29;20050;-92
2024/03/15 09:02:39;;;;;;;12.55;7.82;;;12.50;99.90;;;;;;4977904;29;20043;-92
2024/03/15 09:05:08;;;;;;;10.57;7.32;;;12.50;99.90;;;;;;4969809;29;20066;-92
2024/03/15 09:07:39;;;;;;;10.82;6.70;;;12.60;99.90;;;;;;4973575;29;20499;-93
2024/03/15 09:10:13;;;;;;;11.05;6.95;;;12.70;99.90;;;;;;4990522;29;20050;-92
2024/03/15 09:12:44;;;;;;;13.88;7.50;;;12.80;99.90;;;;;;4971179;29;20035;-93
2024/03/15 09:15:12;;;;;;;9.85;6.45;;;12.90;99.90;;;;;;4972931;29;20035;-92
2024/03/15 09:17:40;;;;;;;12.65;6.82;;;13.00;99.90;;;;;;4968779;29;20130;-93
2024/03/15 09:20:20;;;;;;;15.10;6.53;;;13.10;99.90;;;;;;4977932;29;20043;-92
2024/03/15 09:22:48;;;;;;;13.82;6.53;;;13.10;99.90;;;;;;4975201;29;20039;-92
2024/03/15 09:25:23;;;;;;;10.32;6.25;;;13.10;99.90;;;;;;4974292;29;20441;-92
2024/03/15 09:27:53;;;;;;;11.13;6.32;;;13.10;99.90;;;;;;4963849;29;20040;-93
2024/03/15 09:30:26;;;;;;;10.77;6.30;;;13.10;99.90;;;;;;4976431;29;20039;-93
2024/03/15 09:32:53;;;;;;;14.15;6.38;;;13.10;99.90;;;;;;4967182;29;20050;-92
2024/03/15 09:35:20;;;;;;;11.88;5.90;;;13.00;99.90;;;;;;4963941;29;20098;-92
2024/03/15 09:37:50;;;;;;;9.95;6.03;;;12.90;99.90;;;;;;4963921;29;20048;-93
2024/03/15 09:40:21;;;;;;;10.02;5.63;;;12.90;99.90;;;;;;4966515;29;20039;-92
2024/03/15 09:42:48;;;;;;;11.38;6.00;;;12.90;99.90;;;;;;4965958;29;20039;-93
2024/03/15 09:45:21;;;;;;;10.63;5.78;;;12.80;99.90;;;;;;4968773;29;20043;-92
2024/03/15 09:47:51;;;;;;;10.70;5.65;;;12.80;99.90;;;;;;4974604;29;20035;-92
2024/03/15 09:50:29;;;;;;;10.07;5.40;;;12.80;99.90;;;;;;4975007;29;20046;-92
2024/03/15 09:52:57;;;;;;;9.75;4.72;;;12.80;99.90;;;;;;4973353;29;20043;-92
2024/03/15 09:55:27;;;;;;;9.93;4.72;;;12.70;99.90;;;;;;4974961;29;20484;-92
2024/03/15 09:57:53;;;;;;;11.13;5.03;;;12.70;99.90;;;;;;4975218;29;20050;-92
2024/03/15 10:00:21;;;;;;;8.38;4.82;;;12.80;99.90;;;;;;4989164;29;20048;-92
2024/03/15 10:02:49;;;;;;;11.23;4.60;;;12.20;99.90;;;;;;4963088;29;20063;-92
2024/03/15 10:05:17;;;;;;;9.70;4.95;;;13.10;99.90;;;;;;4973705;29;20129;-92
2024/03/15 10:07:43;;;;;;;10.50;4.68;;;13.20;99.90;;;;;;4966593;29;20071;-93
2024/03/15 10:10:11;;;;;;;9.63;4.80;;;13.20;99.90;;;;;;4981273;29;20514;-92
2024/03/15 10:12:45;;;;;;;11.48;5.05;;;13.20;99.90;;;;;;4973061;29;20058;-92
2024/03/15 10:15:17;;;;;;;12.43;5.47;;;13.20;99.90;;;;;;4973807;29;20512;-93
2024/03/15 10:17:46;;;;;;;8.55;4.93;;;13.10;99.90;;;;;;4977847;29;20047;-93
2024/03/15 10:20:24;;;;;;;11.38;4.88;;;13.20;99.90;;;;;;4973461;29;20047;-93
2024/03/15 10:22:52;;;;;;;7.72;5.00;;;13.10;99.90;;;;;;4960005;29;20067;-92
2024/03/15 10:25:21;;;;;;;9.07;4.75;;;13.20;99.90;;;;;;4965607;29;20059;-92
2024/03/15 10:27:54;;;;;;;10.90;4.95;;;13.20;99.90;;;;;;4973179;29;20043;-93
2024/03/15 10:30:23;;;;;;;10.98;4.72;;;13.30;99.90;;;;;;4975147;29;20055;-92
2024/03/15 10:32:55;;;;;;;8.95;4.45;;;13.40;99.90;;;;;;4972465;29;20042;-93
2024/03/15 10:35:22;;;;;;;11.18;5.03;;;13.40;99.90;;;;;;4978373;29;20115;-92
2024/03/15 10:37:50;;;;;;;8.60;4.60;;;13.50;99.90;;;;;;4970759;29;20082;-93
2024/03/15 10:40:26;;;;;;;8.85;4.22;;;13.50;99.90;;;;;;4971018;29;20039;-92
2024/03/15 10:42:56;;;;;;;8.88;4.38;;;13.40;99.90;;;;;;4959326;29;20105;-91
2024/03/15 10:45:24;;;;;;;12.50;4.38;;;13.50;99.90;;;;;;4971043;29;20039;-92
2024/03/15 10:47:52;;;;;;;9.15;3.70;;;13.60;99.90;;;;;;4976609;29;20031;-92
2024/03/15 10:50:21;;;;;;;9.02;4.25;;;13.70;99.90;;;;;;4964983;29;20050;-92
2024/03/15 10:52:51;;;;;;;9.82;3.65;;;13.70;99.90;;;;;;4977458;29;20137;-92
2024/03/15 10:55:18;;;;;;;6.40;3.35;;;13.70;99.90;;;;;;4970384;29;20063;-93
2024/03/15 10:57:46;;;;;;;5.57;3.03;;;13.80;99.90;;;;;;4968854;29;20036;-92
2024/03/15 11:00:17;;;;;;;11.55;3.25;;;13.80;99.90;;;;;;4972689;29;20062;-92
2024/03/15 11:02:45;;;;;;;5.85;2.75;;;13.80;99.90;;;;;;4970580;29;20043;-91
2024/03/15 11:05:19;;;;;;;7.07;2.63;;;13.80;99.90;;;;;;4982802;28;20047;-92
2024/03/15 11:07:46;;;;;;;7.20;2.47;;;13.80;99.90;;;;;;4974574;29;20044;-92
2024/03/15 11:10:14;;;;;;;8.93;2.75;;;13.90;99.90;;;;;;4973129;29;20040;-93
2024/03/15 11:12:41;;;;;;;5.78;2.63;;;13.90;99.90;;;;;;4966324;29;20039;-92
2024/03/15 11:15:17;;;;;;;6.05;2.45;;;13.60;99.90;;;;;;4967367;29;20090;-93
2024/03/15 11:18:04;;;;;;;6.72;2.22;;;14.00;99.90;;;;;;4972586;29;20091;-93
2024/03/15 11:20:49;;;;;;;6.22;2.10;;;14.00;99.90;;;;;;4966645;29;20051;-93
2024/03/15 11:23:17;;;;;;;6.72;2.20;;;14.00;99.90;;;;;;4967042;29;20035;-91
2024/03/15 11:25:57;;;;;;;5.55;2.00;;;14.10;99.90;;;;;;4972134;29;20035;-92
2024/03/15 11:28:29;;;;;;;7.82;2.60;;;14.20;99.90;;;;;;4969387;29;20485;-93
2024/03/15 11:30:56;;;;;;;8.85;2.15;;;14.20;99.90;;;;;;4969721;29;20095;-92
2024/03/15 11:33:24;;;;;;;8.20;1.98;;;14.20;99.90;;;;;;4972581;29;20040;-93
2024/03/15 11:35:51;;;;;;;4.28;1.75;;;14.20;99.90;;;;;;4975194;29;20043;-92
2024/03/15 11:38:19;;;;;;;6.53;2.10;;;14.10;99.90;;;;;;4976925;29;20050;-93
2024/03/15 11:40:47;;;;;;;7.43;1.80;;;14.00;99.90;;;;;;4971582;29;20043;-92
2024/03/15 11:43:14;;;;;;;9.43;2.22;;;14.00;99.90;;;;;;4973220;29;20058;-93
2024/03/15 11:45:43;;;;;;;7.65;2.25;;;14.10;99.90;;;;;;4969218;29;20038;-92
2024/03/15 11:48:18;;;;;;;6.93;2.05;;;14.10;99.90;;;;;;4971284;29;20148;-92
2024/03/15 11:50:47;;;;;;;11.57;2.97;;;14.20;99.90;;;;;;4968499;29;20043;-92
2024/03/15 11:53:14;;;;;;;8.43;2.17;;;14.20;99.90;;;;;;4969775;29;20050;-92
2024/03/15 11:55:50;;;;;;;7.50;1.92;;;14.20;99.90;;;;;;4962494;29;20044;-92
2024/03/15 11:58:19;;;;;;;7.97;2.10;;;14.10;99.90;;;;;;4963440;29;20051;-92
2024/03/15 12:00:50;;;;;;;7.72;2.20;;;14.50;99.90;;;;;;4968837;29;20497;-92
2024/03/15 12:03:22;;;;;;;11.32;2.40;;;14.70;99.90;;;;;;4977787;29;20047;-92
2024/03/15 12:05:53;;;;;;;8.15;2.20;;;14.80;99.90;;;;;;4964241;29;20050;-92
2024/03/15 12:08:26;;;;;;;9.20;2.35;;;14.80;99.90;;;;;;4969883;29;20543;-92
2024/03/15 12:10:54;;;;;;;7.90;2.58;;;14.70;99.90;;;;;;4979960;29;20054;-91
2024/03/15 12:13:25;;;;;;;5.32;2.22;;;14.60;99.90;;;;;;4966395;29;20126;-92
2024/03/15 12:15:53;;;;;;;6.97;2.45;;;14.50;99.90;;;;;;4969978;29;20054;-92
2024/03/15 12:18:26;;;;;;;7.80;2.10;;;14.40;99.90;;;;;;4965893;29;20099;-92
2024/03/15 12:20:53;;;;;;;9.75;2.30;;;14.40;99.90;;;;;;4973097;29;20066;-92
2024/03/15 12:23:22;;;;;;;8.13;2.35;;;14.30;99.90;;;;;;4967237;29;20039;-91
2024/03/15 12:25:50;;;;;;;9.45;2.10;;;14.30;99.90;;;;;;4965138;28;20051;-91
2024/03/15 12:28:20;;;;;;;8.82;1.95;;;14.40;99.90;;;;;;4965945;29;20519;-91
2024/03/15 12:30:56;;;;;;;7.82;2.25;;;14.40;99.90;;;;;;4960590;29;20043;-92
2024/03/15 12:33:23;;;;;;;10.85;2.58;;;14.40;99.90;;;;;;4960867;29;20383;-91
2024/03/15 12:35:50;;;;;;;11.40;3.25;;;14.40;99.90;;;;;;4963300;29;20055;-91
2024/03/15 12:38:20;;;;;;;9.25;3.58;;;14.30;99.90;;;;;;4975733;29;20051;-92
2024/03/15 12:40:46;;;;;;;11.88;3.30;;;13.90;99.90;;;;;;4964273;29;20098;-91
2024/03/15 12:43:13;;;;;;;12.27;4.75;;;14.20;99.90;;;;;;4976646;29;20043;-92
2024/03/15 12:45:43;;;;;;;7.50;3.20;;;14.20;99.90;;;;;;4968312;29;20548;-92
2024/03/15 12:48:10;;;;;;;8.77;2.95;;;14.30;99.90;;;;;;4973152;29;20078;-91
2024/03/15 12:50:37;;;;;;;11.32;2.72;;;14.40;99.90;;;;;;4971026;29;20043;-91